createdAt,value
2018-12-30T00:04:31.342Z,1.22
2018-12-30T00:09:35.090Z,1.37
2018-12-30T00:14:38.555Z,2.25
2018-12-30T00:19:42.342Z,0.83
2018-12-30T00:24:46.270Z,1.00
2018-12-30T00:29:49.740Z,0.80
2018-12-30T00:34:53.223Z,0.83
2018-12-30T00:39:56.692Z,1.00
2018-12-30T00:45:00.263Z,1.03
2018-12-30T00:50:04.351Z,0.90
2018-12-30T00:55:07.830Z,1.07
2018-12-30T01:00:11.468Z,1.12
2018-12-30T01:05:14.938Z,0.73
2018-12-30T01:10:18.685Z,0.67
2018-12-30T01:15:22.152Z,1.47
2018-12-30T01:20:25.618Z,1.10
2018-12-30T01:25:29.089Z,0.80
2018-12-30T01:30:32.550Z,0.80
2018-12-30T01:35:36.017Z,0.93
2018-12-30T01:40:39.491Z,1.00
2018-12-30T01:45:42.961Z,0.80
2018-12-30T01:50:46.433Z,0.72
2018-12-30T01:55:49.902Z,1.40
2018-12-30T02:00:53.371Z,1.03
2018-12-30T02:05:57.006Z,0.93
2018-12-30T02:11:00.471Z,0.80
2018-12-30T02:16:04.215Z,0.80
2018-12-30T02:21:07.680Z,0.80
2018-12-30T02:26:11.518Z,0.70
2018-12-30T02:31:14.989Z,0.90
2018-12-30T02:36:18.486Z,0.80
2018-12-30T02:41:21.918Z,0.90
2018-12-30T02:46:25.387Z,0.73
2018-12-30T02:51:28.855Z,1.00
2018-12-30T02:56:32.321Z,1.07
2018-12-30T03:01:35.791Z,0.50
2018-12-30T03:06:39.256Z,1.30
2018-12-30T03:11:42.719Z,0.60
2018-12-30T03:16:46.198Z,0.70
2018-12-30T03:21:49.659Z,1.03
2018-12-30T03:26:53.125Z,0.57
2018-12-30T03:31:56.604Z,0.75
2018-12-30T03:37:00.068Z,0.70
2018-12-30T03:42:03.602Z,0.45
2018-12-30T03:47:07.073Z,0.60
2018-12-30T03:52:11.478Z,0.77
2018-12-30T03:57:14.932Z,1.50
2018-12-30T04:02:18.397Z,0.80
2018-12-30T04:07:21.862Z,0.80
2018-12-30T04:12:25.333Z,0.50
2018-12-30T04:17:28.786Z,0.60
2018-12-30T04:22:33.869Z,0.70
2018-12-30T04:27:37.597Z,0.60
2018-12-30T04:32:41.062Z,0.80
2018-12-30T04:37:44.528Z,0.70
2018-12-30T04:42:47.996Z,0.60
2018-12-30T04:47:51.460Z,0.90
2018-12-30T04:52:54.931Z,0.65
2018-12-30T04:57:58.391Z,1.00
2018-12-30T05:03:01.858Z,0.53
2018-12-30T05:08:05.322Z,0.63
2018-12-30T05:13:08.787Z,0.50
2018-12-30T05:18:12.257Z,0.70
2018-12-30T05:23:15.723Z,0.70
2018-12-30T05:28:19.191Z,0.60
2018-12-30T05:33:22.666Z,0.60
2018-12-30T05:38:26.125Z,0.95
2018-12-30T05:43:29.589Z,0.50
2018-12-30T05:48:33.053Z,0.50
2018-12-30T05:53:36.520Z,0.88
2018-12-30T05:58:39.987Z,1.05
2018-12-30T06:03:43.456Z,0.70
2018-12-30T06:08:46.926Z,1.00
2018-12-30T06:13:50.386Z,1.20
2018-12-30T06:18:53.861Z,0.42
2018-12-30T06:23:57.336Z,0.50
2018-12-30T06:29:00.799Z,0.57
2018-12-30T06:34:04.268Z,0.55
2018-12-30T06:39:07.730Z,0.67
2018-12-30T06:44:11.204Z,0.50
2018-12-30T06:49:14.667Z,0.43
2018-12-30T06:54:18.134Z,1.03
2018-12-30T06:59:21.600Z,0.47
2018-12-30T07:04:25.062Z,0.30
2018-12-30T07:09:28.528Z,0.30
2018-12-30T07:14:31.994Z,0.70
2018-12-30T07:19:35.455Z,0.30
2018-12-30T07:24:38.919Z,0.60
2018-12-30T07:29:42.460Z,0.50
2018-12-30T07:34:45.926Z,0.60
2018-12-30T07:39:49.402Z,0.40
2018-12-30T07:44:52.873Z,1.17
2018-12-30T07:49:56.335Z,0.77
2018-12-30T07:54:59.799Z,0.53
2018-12-30T08:00:03.316Z,0.65
2018-12-30T08:05:06.775Z,1.93
2018-12-30T08:10:10.247Z,6.13
2018-12-30T08:15:13.721Z,5.87
2018-12-30T08:20:17.179Z,5.60
2018-12-30T08:25:20.639Z,6.67
2018-12-30T08:30:24.104Z,7.07
2018-12-30T08:35:27.570Z,6.80
2018-12-30T08:40:31.039Z,5.87
2018-12-30T08:45:34.514Z,4.87
2018-12-30T08:50:37.975Z,5.50
2018-12-30T08:55:41.439Z,7.60
2018-12-30T09:00:44.903Z,8.10
2018-12-30T09:05:48.371Z,5.63
2018-12-30T09:10:51.831Z,6.70
2018-12-30T09:15:55.296Z,4.10
2018-12-30T09:20:58.764Z,5.00
2018-12-30T09:26:02.227Z,3.50
2018-12-30T09:31:05.690Z,4.00
2018-12-30T09:36:09.166Z,3.43
2018-12-30T09:41:12.632Z,5.10
2018-12-30T09:46:16.096Z,3.77
2018-12-30T09:51:19.565Z,4.30
2018-12-30T09:56:23.030Z,2.73
2018-12-30T10:01:26.495Z,3.47
2018-12-30T10:06:29.961Z,3.83
2018-12-30T10:11:33.423Z,2.80
2018-12-30T10:16:36.893Z,5.97
2018-12-30T10:21:40.358Z,7.10
2018-12-30T10:26:43.823Z,6.80
2018-12-30T10:31:47.287Z,4.23
2018-12-30T10:36:50.753Z,4.67
2018-12-30T10:41:54.215Z,4.83
2018-12-30T10:46:57.685Z,2.53
2018-12-30T10:52:01.158Z,4.00
2018-12-30T10:57:04.623Z,2.43
2018-12-30T11:02:08.092Z,6.50
2018-12-30T11:07:11.561Z,2.10
2018-12-30T11:12:15.026Z,4.50
2018-12-30T11:17:18.501Z,4.00
2018-12-30T11:22:21.969Z,2.63
2018-12-30T11:27:25.430Z,4.17
2018-12-30T11:32:29.069Z,1.83
2018-12-30T11:37:32.530Z,2.17
2018-12-30T11:42:35.997Z,3.27
2018-12-30T11:47:39.460Z,6.00
2018-12-30T11:52:42.923Z,6.93
2018-12-30T11:57:46.402Z,26.70
2018-12-30T12:02:49.877Z,31.87
2018-12-30T12:07:53.353Z,29.55
2018-12-30T12:12:56.841Z,25.43
2018-12-30T12:18:00.310Z,25.33
2018-12-30T12:23:03.794Z,22.25
2018-12-30T12:28:07.273Z,25.20
2018-12-30T12:33:10.755Z,24.13
2018-12-30T12:38:14.226Z,11.23
2018-12-30T12:43:17.694Z,6.73
2018-12-30T12:48:21.164Z,10.70
2018-12-30T12:53:24.657Z,9.80
2018-12-30T12:58:28.152Z,10.35
2018-12-30T13:03:31.639Z,9.80
2018-12-30T13:08:35.128Z,6.73
2018-12-30T13:13:38.611Z,6.75
2018-12-30T13:18:42.093Z,7.03
2018-12-30T13:23:45.598Z,9.30
2018-12-30T13:28:49.087Z,9.03
2018-12-30T13:33:52.571Z,6.55
2018-12-30T13:38:56.127Z,7.47
2018-12-30T13:43:59.611Z,6.03
2018-12-30T13:49:03.091Z,7.03
2018-12-30T13:54:06.579Z,6.30
2018-12-30T13:59:10.059Z,7.53
2018-12-30T14:04:13.543Z,4.13
2018-12-30T14:09:17.025Z,7.20
2018-12-30T14:14:20.510Z,6.20
2018-12-30T14:19:23.996Z,6.40
2018-12-30T14:24:27.483Z,5.12
2018-12-30T14:29:30.969Z,5.10
2018-12-30T14:34:34.457Z,4.83
2018-12-30T14:39:37.950Z,3.12
2018-12-30T14:44:41.442Z,3.47
2018-12-30T14:49:44.924Z,4.87
2018-12-30T14:54:48.406Z,4.28
2018-12-30T14:59:51.900Z,3.17
2018-12-30T15:04:55.382Z,5.33
2018-12-30T15:09:58.890Z,3.77
2018-12-30T15:15:02.372Z,5.47
2018-12-30T15:20:07.700Z,4.40
2018-12-30T15:25:12.126Z,7.27
2018-12-30T15:30:15.744Z,3.43
2018-12-30T15:35:19.224Z,3.97
2018-12-30T15:40:22.704Z,4.73
2018-12-30T15:45:26.182Z,4.63
2018-12-30T15:50:29.672Z,8.45
2018-12-30T15:55:33.156Z,2.67
2018-12-30T16:00:36.648Z,3.60
2018-12-30T16:05:40.122Z,3.43
2018-12-30T16:10:43.606Z,3.63
2018-12-30T16:15:47.088Z,4.00
2018-12-30T16:20:50.569Z,3.45
2018-12-30T16:25:54.050Z,3.40
2018-12-30T16:30:57.536Z,4.22
2018-12-30T16:36:01.021Z,5.42
2018-12-30T16:41:04.507Z,3.37
2018-12-30T16:46:07.993Z,3.15
2018-12-30T16:51:11.476Z,3.08
2018-12-30T16:56:14.960Z,4.63
2018-12-30T17:01:18.447Z,2.02
2018-12-30T17:06:21.930Z,8.73
2018-12-30T17:11:25.417Z,2.02
2018-12-30T17:16:28.898Z,5.42
2018-12-30T17:21:32.378Z,5.40
2018-12-30T17:26:35.950Z,3.22
2018-12-30T17:31:39.423Z,4.30
2018-12-30T17:36:42.912Z,1.35
2018-12-30T17:41:46.399Z,3.30
2018-12-30T17:46:49.880Z,3.33
2018-12-30T17:51:53.372Z,2.45
2018-12-30T17:56:56.859Z,3.30
2018-12-30T18:02:00.338Z,4.35
2018-12-30T18:07:03.822Z,4.93
2018-12-30T18:12:07.311Z,3.87
2018-12-30T18:17:10.792Z,1.70
2018-12-30T18:22:14.274Z,3.12
2018-12-30T18:27:17.761Z,3.45
2018-12-30T18:32:21.239Z,2.52
2018-12-30T18:37:24.719Z,2.47
2018-12-30T18:42:28.199Z,3.87
2018-12-30T18:47:31.684Z,1.65
2018-12-30T18:52:35.181Z,1.47
2018-12-30T18:57:38.665Z,6.05
2018-12-30T19:02:42.143Z,1.65
2018-12-30T19:07:45.623Z,2.57
2018-12-30T19:12:49.109Z,2.75
2018-12-30T19:17:52.593Z,2.27
2018-12-30T19:22:56.162Z,1.50
2018-12-30T19:27:59.638Z,2.35
2018-12-30T19:33:03.120Z,1.65
2018-12-30T19:38:06.602Z,1.82
2018-12-30T19:43:10.098Z,1.50
2018-12-30T19:48:13.573Z,2.08
2018-12-30T19:53:17.053Z,2.53
2018-12-30T19:58:20.537Z,1.45
2018-12-30T20:03:24.022Z,2.45
2018-12-30T20:08:27.509Z,1.67
2018-12-30T20:13:31.005Z,1.55
2018-12-30T20:18:34.484Z,1.22
2018-12-30T20:23:37.974Z,1.70
2018-12-30T20:28:41.460Z,1.33
2018-12-30T20:33:44.946Z,1.72
2018-12-30T20:38:48.427Z,1.00
2018-12-30T20:43:51.911Z,1.32
2018-12-30T20:48:55.381Z,1.02
2018-12-30T20:53:58.860Z,0.88
2018-12-30T20:59:02.323Z,1.47
2018-12-30T21:04:05.792Z,1.50
2018-12-30T21:09:09.265Z,1.27
2018-12-30T21:14:13.658Z,3.08
2018-12-30T21:19:17.122Z,1.50
2018-12-30T21:24:20.592Z,1.55
2018-12-30T21:29:24.065Z,1.37
2018-12-30T21:34:27.526Z,1.60
2018-12-30T21:39:30.993Z,1.67
2018-12-30T21:44:34.459Z,1.35
2018-12-30T21:49:37.923Z,1.20
2018-12-30T21:54:41.387Z,1.40
2018-12-30T21:59:44.856Z,1.57
2018-12-30T22:04:48.321Z,2.90
2018-12-30T22:09:51.787Z,1.32
2018-12-30T22:14:55.250Z,1.40
2018-12-30T22:19:58.724Z,1.73
2018-12-30T22:25:02.192Z,1.05
2018-12-30T22:30:06.586Z,1.42
2018-12-30T22:35:10.050Z,1.10
2018-12-30T22:40:13.515Z,1.85
2018-12-30T22:45:16.982Z,1.43
2018-12-30T22:50:20.442Z,1.00
2018-12-30T22:55:23.917Z,1.33
2018-12-30T23:00:45.007Z,1.22
2018-12-30T23:05:48.471Z,1.40
2018-12-30T23:10:53.411Z,0.87
2018-12-30T23:15:56.879Z,0.50
2018-12-30T23:21:00.349Z,1.37
2018-12-30T23:26:03.815Z,1.03
2018-12-30T23:31:07.285Z,1.05
2018-12-30T23:36:10.757Z,0.83
2018-12-30T23:41:14.223Z,1.25
2018-12-30T23:46:17.687Z,1.00
2018-12-30T23:51:21.157Z,1.22
2018-12-30T23:56:24.621Z,1.33
